createdAt,value
2019-01-28T00:00:00.835Z,0
2019-01-28T00:01:10.960Z,0
2019-01-28T00:02:21.077Z,0
2019-01-28T00:03:31.179Z,0
2019-01-28T00:04:41.348Z,0
2019-01-28T00:05:51.464Z,0
2019-01-28T00:07:01.310Z,0
2019-01-28T00:08:11.196Z,0
2019-01-28T00:09:21.301Z,0
2019-01-28T00:10:31.456Z,0
2019-01-28T00:11:41.569Z,0
2019-01-28T00:12:51.674Z,0
2019-01-28T00:14:01.818Z,0
2019-01-28T00:15:11.926Z,0
2019-01-28T00:16:22.043Z,0
2019-01-28T00:17:32.279Z,0
2019-01-28T00:18:42.378Z,0
2019-01-28T00:19:52.241Z,0
2019-01-28T00:21:02.345Z,0
2019-01-28T00:22:12.457Z,0
2019-01-28T00:23:22.683Z,0
2019-01-28T00:24:32.810Z,0
2019-01-28T00:25:42.931Z,0
2019-01-28T00:26:53.055Z,0
2019-01-28T00:28:03.192Z,0
2019-01-28T00:29:13.056Z,0
2019-01-28T00:30:23.173Z,0
2019-01-28T00:31:33.279Z,0
2019-01-28T00:32:43.410Z,0
2019-01-28T00:33:53.533Z,0
2019-01-28T00:35:03.640Z,0
2019-01-28T00:36:13.756Z,0
2019-01-28T00:37:23.878Z,0
2019-01-28T00:38:34.002Z,0
2019-01-28T00:39:44.122Z,0
2019-01-28T00:40:54.228Z,0
2019-01-28T00:42:04.356Z,0
2019-01-28T00:43:14.452Z,0
2019-01-28T00:44:24.577Z,0
2019-01-28T00:45:34.686Z,0
2019-01-28T00:46:44.784Z,0
2019-01-28T00:47:54.901Z,0
2019-01-28T00:49:04.996Z,0
2019-01-28T00:50:15.106Z,0
2019-01-28T00:51:25.227Z,0
2019-01-28T00:52:35.079Z,0
2019-01-28T00:53:45.202Z,0
2019-01-28T00:54:55.071Z,0
2019-01-28T00:56:05.193Z,0
2019-01-28T00:57:15.292Z,0
2019-01-28T00:58:25.410Z,0
2019-01-28T00:59:35.538Z,0
2019-01-28T01:00:45.668Z,0
2019-01-28T01:01:55.797Z,0
2019-01-28T01:03:05.896Z,0
2019-01-28T01:04:16.014Z,0
2019-01-28T01:05:26.160Z,0
2019-01-28T01:06:36.275Z,0
2019-01-28T01:07:46.413Z,0
2019-01-28T01:08:56.516Z,0
2019-01-28T01:10:06.639Z,0
2019-01-28T01:11:16.746Z,0
2019-01-28T01:12:26.856Z,0
2019-01-28T01:13:36.605Z,0
2019-01-28T01:14:46.725Z,0
2019-01-28T01:15:56.581Z,0
2019-01-28T01:17:06.686Z,0
2019-01-28T01:18:16.800Z,0
2019-01-28T01:19:26.898Z,0
2019-01-28T01:20:36.767Z,0
2019-01-28T01:21:46.980Z,0
2019-01-28T01:22:58.071Z,0
2019-01-28T01:24:08.191Z,0
2019-01-28T01:25:18.300Z,0
2019-01-28T01:26:28.403Z,0
2019-01-28T01:27:38.260Z,0
2019-01-28T01:28:48.365Z,0
2019-01-28T01:29:58.474Z,0
2019-01-28T01:31:08.615Z,0
2019-01-28T01:32:18.719Z,0
2019-01-28T01:33:28.819Z,0
2019-01-28T01:34:38.938Z,0
2019-01-28T01:35:49.058Z,0
2019-01-28T01:36:59.169Z,0
2019-01-28T01:38:09.273Z,0
2019-01-28T01:39:19.389Z,0
2019-01-28T01:40:29.490Z,0
2019-01-28T01:41:39.600Z,0
2019-01-28T01:42:49.448Z,0
2019-01-28T01:43:59.561Z,0
2019-01-28T01:45:09.674Z,0
2019-01-28T01:46:19.788Z,0
2019-01-28T01:47:29.887Z,0
2019-01-28T01:48:39.745Z,0
2019-01-28T01:49:49.859Z,0
2019-01-28T01:50:59.959Z,0
2019-01-28T01:52:10.063Z,0
2019-01-28T01:53:20.170Z,0
2019-01-28T01:54:30.269Z,0
2019-01-28T01:55:40.390Z,0
2019-01-28T01:56:50.504Z,0
2019-01-28T01:58:00.593Z,0
2019-01-28T01:59:10.700Z,0
2019-01-28T02:00:20.802Z,0
2019-01-28T02:01:30.919Z,0
2019-01-28T02:02:41.014Z,0
2019-01-28T02:03:51.133Z,0
2019-01-28T02:05:01.247Z,0
2019-01-28T02:06:11.378Z,0
2019-01-28T02:07:21.495Z,0
2019-01-28T02:08:31.600Z,0
2019-01-28T02:09:41.718Z,0
2019-01-28T02:10:51.832Z,0
2019-01-28T02:12:01.927Z,0
2019-01-28T02:13:12.028Z,0
2019-01-28T02:14:22.143Z,0
2019-01-28T02:15:32.254Z,0
2019-01-28T02:16:42.359Z,0
2019-01-28T02:17:52.470Z,0
2019-01-28T02:19:02.572Z,0
2019-01-28T02:20:12.670Z,0
2019-01-28T02:21:22.768Z,0
2019-01-28T02:22:32.878Z,0
2019-01-28T02:23:44.416Z,0
2019-01-28T02:24:58.119Z,0
2019-01-28T02:26:08.250Z,0
2019-01-28T02:27:18.359Z,0
2019-01-28T02:28:28.281Z,0
2019-01-28T02:29:38.385Z,0
2019-01-28T02:30:48.494Z,0
2019-01-28T02:31:58.586Z,0
2019-01-28T02:33:08.681Z,0
2019-01-28T02:34:18.796Z,0
2019-01-28T02:35:28.915Z,0
2019-01-28T02:36:39.022Z,0
2019-01-28T02:37:49.127Z,0
2019-01-28T02:38:59.247Z,0
2019-01-28T02:40:09.422Z,0
2019-01-28T02:41:19.550Z,0
2019-01-28T02:42:29.655Z,0
2019-01-28T02:43:39.777Z,0
2019-01-28T02:44:49.873Z,0
2019-01-28T02:45:59.990Z,0
2019-01-28T02:47:10.101Z,0
2019-01-28T02:48:20.207Z,0
2019-01-28T02:49:30.329Z,0
2019-01-28T02:50:40.442Z,0
2019-01-28T02:51:50.572Z,0
2019-01-28T02:53:00.678Z,0
2019-01-28T02:54:10.837Z,0
2019-01-28T02:55:20.975Z,0
2019-01-28T02:56:31.097Z,0
2019-01-28T02:57:41.198Z,0
2019-01-28T02:58:51.308Z,0
2019-01-28T03:00:01.405Z,0
2019-01-28T03:01:11.164Z,0
2019-01-28T03:02:21.026Z,0
2019-01-28T03:03:31.130Z,0
2019-01-28T03:04:41.244Z,0
2019-01-28T03:05:51.367Z,0
2019-01-28T03:07:01.462Z,0
2019-01-28T03:08:11.554Z,0
2019-01-28T03:09:21.302Z,0
2019-01-28T03:10:31.413Z,0
2019-01-28T03:11:41.512Z,0
2019-01-28T03:12:51.617Z,0
2019-01-28T03:14:01.725Z,0
2019-01-28T03:15:11.840Z,0
2019-01-28T03:16:21.685Z,0
2019-01-28T03:17:33.983Z,0
2019-01-28T03:18:44.112Z,0
2019-01-28T03:19:54.225Z,0
2019-01-28T03:21:04.349Z,0
2019-01-28T03:22:14.453Z,0
2019-01-28T03:23:24.631Z,0
2019-01-28T03:24:34.738Z,0
2019-01-28T03:25:44.839Z,0
2019-01-28T03:26:54.960Z,0
2019-01-28T03:28:04.813Z,0
2019-01-28T03:29:14.907Z,0
2019-01-28T03:30:25.131Z,0
2019-01-28T03:31:35.268Z,0
2019-01-28T03:32:45.469Z,0
2019-01-28T03:33:55.621Z,0
2019-01-28T03:35:05.731Z,0
2019-01-28T03:36:15.832Z,0
2019-01-28T03:37:25.952Z,0
2019-01-28T03:38:36.046Z,0
2019-01-28T03:39:46.155Z,0
2019-01-28T03:40:56.348Z,0
2019-01-28T03:42:06.451Z,0
2019-01-28T03:43:16.547Z,0
2019-01-28T03:44:26.654Z,0
2019-01-28T03:45:36.761Z,0
2019-01-28T03:46:46.882Z,0
2019-01-28T03:47:57.005Z,0
2019-01-28T03:49:07.124Z,0
2019-01-28T03:50:17.235Z,0
2019-01-28T03:51:27.338Z,0
2019-01-28T03:52:37.438Z,0
2019-01-28T03:53:47.562Z,0
2019-01-28T03:54:57.662Z,0
2019-01-28T03:56:07.801Z,0
2019-01-28T03:57:17.912Z,0
2019-01-28T03:58:28.025Z,0
2019-01-28T03:59:38.134Z,0
2019-01-28T04:00:47.984Z,0
2019-01-28T04:01:57.924Z,0
2019-01-28T04:03:08.034Z,0
2019-01-28T04:04:18.145Z,0
2019-01-28T04:05:28.294Z,0
2019-01-28T04:06:38.401Z,0
2019-01-28T04:07:48.508Z,0
2019-01-28T04:08:57.990Z,0
2019-01-28T04:10:07.836Z,0
2019-01-28T04:11:17.709Z,0
2019-01-28T04:12:27.810Z,0
2019-01-28T04:13:37.927Z,0
2019-01-28T04:14:48.075Z,0
2019-01-28T04:15:58.166Z,0
2019-01-28T04:17:08.287Z,0
2019-01-28T04:18:18.394Z,0
2019-01-28T04:19:28.499Z,0
2019-01-28T04:20:38.607Z,0
2019-01-28T04:21:48.466Z,0
2019-01-28T04:22:58.598Z,0
2019-01-28T04:24:08.703Z,0
2019-01-28T04:25:18.556Z,0
2019-01-28T04:26:28.416Z,0
2019-01-28T04:27:38.253Z,0
2019-01-28T04:28:48.439Z,0
2019-01-28T04:29:58.540Z,0
2019-01-28T04:31:08.643Z,0
2019-01-28T04:32:18.747Z,0
2019-01-28T04:33:28.862Z,0
2019-01-28T04:34:38.965Z,0
2019-01-28T04:35:49.065Z,0
2019-01-28T04:36:59.191Z,0
2019-01-28T04:38:09.285Z,0
2019-01-28T04:39:19.380Z,0
2019-01-28T04:40:29.507Z,0
2019-01-28T04:41:39.598Z,0
2019-01-28T04:42:49.701Z,0
2019-01-28T04:43:59.797Z,0
2019-01-28T04:45:09.905Z,0
2019-01-28T04:46:20.017Z,0
2019-01-28T04:47:29.855Z,0
2019-01-28T04:48:39.955Z,0
2019-01-28T04:49:50.053Z,0
2019-01-28T04:51:00.162Z,0
2019-01-28T04:52:10.328Z,0
2019-01-28T04:53:20.460Z,0
2019-01-28T04:54:30.572Z,0
2019-01-28T04:55:40.675Z,0
2019-01-28T04:56:50.772Z,0
2019-01-28T04:58:00.906Z,0
2019-01-28T04:59:10.743Z,0
2019-01-28T05:00:20.858Z,0
2019-01-28T05:01:30.724Z,0
2019-01-28T05:02:40.834Z,0
2019-01-28T05:03:50.933Z,0
2019-01-28T05:05:01.029Z,0
2019-01-28T05:06:13.108Z,0
2019-01-28T05:07:23.257Z,0
2019-01-28T05:08:33.351Z,0
2019-01-28T05:09:43.446Z,0
2019-01-28T05:10:53.564Z,0
2019-01-28T05:12:03.698Z,0
2019-01-28T05:13:13.814Z,0
2019-01-28T05:14:23.913Z,0
2019-01-28T05:15:34.064Z,0
2019-01-28T05:16:44.175Z,0
2019-01-28T05:17:54.273Z,0
2019-01-28T05:19:04.432Z,0
2019-01-28T05:20:14.576Z,0
2019-01-28T05:21:24.700Z,0
2019-01-28T05:22:34.811Z,0
2019-01-28T05:23:44.930Z,0
2019-01-28T05:24:55.035Z,0
2019-01-28T05:26:05.140Z,0
2019-01-28T05:27:15.267Z,0
2019-01-28T05:28:25.377Z,0
2019-01-28T05:29:35.485Z,0
2019-01-28T05:30:45.614Z,0
2019-01-28T05:31:55.774Z,0
2019-01-28T05:33:05.900Z,0
2019-01-28T05:34:16.532Z,0
2019-01-28T05:35:26.643Z,0
2019-01-28T05:36:36.745Z,0
2019-01-28T05:37:46.861Z,0
2019-01-28T05:38:56.964Z,0
2019-01-28T05:40:07.074Z,0
2019-01-28T05:41:17.174Z,0
2019-01-28T05:42:27.288Z,0
2019-01-28T05:43:37.423Z,0
2019-01-28T05:44:47.529Z,0
2019-01-28T05:45:57.955Z,0
2019-01-28T05:47:08.069Z,0
2019-01-28T05:48:18.172Z,0
2019-01-28T05:49:28.281Z,0
2019-01-28T05:50:38.487Z,0
2019-01-28T05:51:48.606Z,0
2019-01-28T05:52:58.462Z,0
2019-01-28T05:54:08.563Z,0
2019-01-28T05:55:18.723Z,0
2019-01-28T05:56:28.566Z,0
2019-01-28T05:57:38.681Z,0
2019-01-28T05:58:48.789Z,0
2019-01-28T05:59:58.889Z,0
2019-01-28T06:01:08.993Z,0
2019-01-28T06:02:19.122Z,0
2019-01-28T06:03:29.251Z,0
2019-01-28T06:04:39.373Z,0
2019-01-28T06:05:49.503Z,0
2019-01-28T06:06:59.617Z,0
2019-01-28T06:08:10.338Z,0
2019-01-28T06:09:20.207Z,0
2019-01-28T06:10:30.339Z,0
2019-01-28T06:11:40.442Z,0
2019-01-28T06:12:50.546Z,0
2019-01-28T06:14:00.646Z,0
2019-01-28T06:15:10.757Z,0
2019-01-28T06:16:20.875Z,0
2019-01-28T06:17:38.646Z,0
2019-01-28T06:18:49.215Z,0
2019-01-28T06:19:59.325Z,0
2019-01-28T06:21:09.613Z,0
2019-01-28T06:22:19.725Z,0
2019-01-28T06:23:29.582Z,0
2019-01-28T06:24:39.713Z,0
2019-01-28T06:25:49.827Z,4
2019-01-28T06:26:59.948Z,4
2019-01-28T06:28:10.053Z,4
2019-01-28T06:29:20.163Z,0
2019-01-28T06:30:30.288Z,4
2019-01-28T06:31:40.612Z,4
2019-01-28T06:32:50.711Z,4
2019-01-28T06:34:00.834Z,4
2019-01-28T06:35:10.963Z,4
2019-01-28T06:36:21.066Z,8
2019-01-28T06:37:31.179Z,8
2019-01-28T06:38:41.281Z,8
2019-01-28T06:39:51.391Z,12
2019-01-28T06:41:01.520Z,12
2019-01-28T06:42:11.647Z,16
2019-01-28T06:43:21.740Z,20
2019-01-28T06:44:31.841Z,20
2019-01-28T06:45:41.984Z,28
2019-01-28T06:46:53.110Z,32
2019-01-28T06:48:03.243Z,32
2019-01-28T06:49:13.356Z,40
2019-01-28T06:50:23.472Z,48
2019-01-28T06:51:33.338Z,56
2019-01-28T06:52:43.434Z,64
2019-01-28T06:53:53.532Z,72
2019-01-28T06:55:03.632Z,80
2019-01-28T06:56:13.745Z,92
2019-01-28T06:57:23.857Z,104
2019-01-28T06:58:33.970Z,124
2019-01-28T06:59:44.071Z,136
2019-01-28T07:00:54.196Z,152
2019-01-28T07:02:04.302Z,172
2019-01-28T07:03:14.405Z,192
2019-01-28T07:04:24.512Z,212
2019-01-28T07:05:34.630Z,236
2019-01-28T07:06:44.738Z,256
2019-01-28T07:07:54.856Z,288
2019-01-28T07:09:04.954Z,312
2019-01-28T07:10:15.063Z,344
2019-01-28T07:11:24.915Z,372
2019-01-28T07:12:35.028Z,400
2019-01-28T07:13:45.231Z,432
2019-01-28T07:14:55.329Z,460
2019-01-28T07:16:05.435Z,496
2019-01-28T07:17:15.537Z,536
2019-01-28T07:18:25.270Z,568
2019-01-28T07:19:37.351Z,604
2019-01-28T07:20:47.445Z,648
2019-01-28T07:21:57.575Z,692
2019-01-28T07:23:07.675Z,748
2019-01-28T07:24:17.782Z,820
2019-01-28T07:25:27.896Z,872
2019-01-28T07:26:38.007Z,916
2019-01-28T07:27:48.110Z,956
2019-01-28T07:28:58.212Z,996
2019-01-28T07:30:08.515Z,1040
2019-01-28T07:31:18.617Z,1084
2019-01-28T07:32:28.522Z,1160
2019-01-28T07:33:38.633Z,1244
2019-01-28T07:34:48.746Z,1320
2019-01-28T07:35:58.850Z,1380
2019-01-28T07:37:08.965Z,1460
2019-01-28T07:38:19.080Z,1524
2019-01-28T07:39:29.193Z,1568
2019-01-28T07:40:39.319Z,1560
2019-01-28T07:41:49.414Z,1672
2019-01-28T07:42:59.356Z,1728
2019-01-28T07:44:09.467Z,1740
2019-01-28T07:45:19.570Z,1828
2019-01-28T07:46:29.709Z,1912
2019-01-28T07:47:39.829Z,2012
2019-01-28T07:48:49.932Z,2040
2019-01-28T07:50:00.041Z,2148
2019-01-28T07:51:10.148Z,2248
2019-01-28T07:52:20.250Z,2672
2019-01-28T07:53:30.387Z,2680
2019-01-28T07:54:40.491Z,3008
2019-01-28T07:55:50.588Z,3132
2019-01-28T07:57:00.689Z,3316
2019-01-28T07:58:10.781Z,3472
2019-01-28T07:59:20.520Z,3588
2019-01-28T08:00:30.619Z,3760
2019-01-28T08:01:40.724Z,3972
2019-01-28T08:02:50.850Z,4300
2019-01-28T08:04:00.976Z,4700
2019-01-28T08:05:11.088Z,4652
2019-01-28T08:06:21.195Z,3856
2019-01-28T08:07:31.306Z,5408
2019-01-28T08:08:41.412Z,5820
2019-01-28T08:09:51.534Z,5496
2019-01-28T08:11:01.368Z,5208
2019-01-28T08:12:11.485Z,7724
2019-01-28T08:13:21.596Z,8320
2019-01-28T08:14:31.754Z,9284
2019-01-28T08:15:41.883Z,8992
2019-01-28T08:16:51.979Z,7896
2019-01-28T08:18:02.089Z,6376
2019-01-28T08:19:18.761Z,6252
2019-01-28T08:20:28.921Z,6056
2019-01-28T08:21:39.140Z,6496
2019-01-28T08:22:49.255Z,5868
2019-01-28T08:23:59.132Z,5864
2019-01-28T08:25:09.250Z,7284
2019-01-28T08:26:19.372Z,6304
2019-01-28T08:27:29.485Z,3752
2019-01-28T08:28:44.174Z,3964
2019-01-28T08:29:54.034Z,8020
2019-01-28T08:31:04.201Z,10252
2019-01-28T08:32:14.317Z,8968
2019-01-28T08:33:24.452Z,4468
2019-01-28T08:34:34.571Z,9144
2019-01-28T08:35:44.762Z,5968
2019-01-28T08:36:54.888Z,11060
2019-01-28T08:38:05.017Z,9012
2019-01-28T08:39:15.153Z,7040
2019-01-28T08:40:25.270Z,5972
2019-01-28T08:41:35.448Z,7996
2019-01-28T08:42:45.557Z,11216
2019-01-28T08:43:55.693Z,14784
2019-01-28T08:45:05.817Z,7652
2019-01-28T08:46:15.982Z,10228
2019-01-28T08:47:26.078Z,7728
2019-01-28T08:48:36.192Z,10912
2019-01-28T08:49:46.295Z,8696
2019-01-28T08:50:56.404Z,8908
2019-01-28T08:52:06.525Z,9472
2019-01-28T08:53:16.655Z,6928
2019-01-28T08:54:26.759Z,6472
2019-01-28T08:55:36.883Z,7768
2019-01-28T08:56:46.982Z,8092
2019-01-28T08:57:57.098Z,6640
2019-01-28T08:59:07.292Z,6140
2019-01-28T09:00:17.402Z,5860
2019-01-28T09:01:27.575Z,5856
2019-01-28T09:02:37.468Z,5612
2019-01-28T09:03:47.608Z,5176
2019-01-28T09:04:57.730Z,5244
2019-01-28T09:06:08.038Z,5544
2019-01-28T09:07:18.205Z,5900
2019-01-28T09:08:28.325Z,6168
2019-01-28T09:09:38.476Z,6180
2019-01-28T09:10:48.585Z,6236
2019-01-28T09:11:58.702Z,6992
2019-01-28T09:13:08.831Z,7420
2019-01-28T09:14:18.941Z,8188
2019-01-28T09:15:29.070Z,10600
2019-01-28T09:16:39.185Z,8340
2019-01-28T09:17:49.299Z,18432
2019-01-28T09:18:59.422Z,23584
2019-01-28T09:20:11.233Z,27584
2019-01-28T09:21:21.418Z,17728
2019-01-28T09:22:31.541Z,16384
2019-01-28T09:23:41.654Z,26656
2019-01-28T09:24:51.787Z,27328
2019-01-28T09:26:01.899Z,27136
2019-01-28T09:27:12.009Z,27232
2019-01-28T09:28:22.134Z,27392
2019-01-28T09:29:32.032Z,28096
2019-01-28T09:30:42.223Z,29472
2019-01-28T09:31:53.221Z,30304
2019-01-28T09:33:03.355Z,27808
2019-01-28T09:34:13.472Z,28512
2019-01-28T09:35:23.577Z,27456
2019-01-28T09:36:33.701Z,27872
2019-01-28T09:37:43.811Z,28864
2019-01-28T09:38:53.937Z,29248
2019-01-28T09:40:04.062Z,11940
2019-01-28T09:41:14.262Z,22176
2019-01-28T09:42:24.382Z,30944
2019-01-28T09:43:34.243Z,32640
2019-01-28T09:44:44.359Z,12472
2019-01-28T09:45:54.467Z,30720
2019-01-28T09:47:04.603Z,23648
2019-01-28T09:48:14.714Z,10380
2019-01-28T09:49:24.879Z,10264
2019-01-28T09:50:35.012Z,10596
2019-01-28T09:51:45.133Z,8164
2019-01-28T09:52:55.253Z,6552
2019-01-28T09:54:04.881Z,6320
2019-01-28T09:55:14.991Z,5992
2019-01-28T09:56:24.978Z,6832
2019-01-28T09:57:35.110Z,5672
2019-01-28T09:58:45.242Z,4872
2019-01-28T09:59:55.380Z,5796
2019-01-28T10:01:05.581Z,6044
2019-01-28T10:02:15.776Z,6184
2019-01-28T10:03:25.941Z,5056
2019-01-28T10:04:36.097Z,4084
2019-01-28T10:05:46.230Z,3668
2019-01-28T10:06:56.398Z,3724
2019-01-28T10:08:06.524Z,3496
2019-01-28T10:09:17.572Z,3472
2019-01-28T10:10:27.319Z,3064
2019-01-28T10:11:37.439Z,2524
2019-01-28T10:12:47.565Z,3036
2019-01-28T10:13:57.723Z,3388
2019-01-28T10:15:07.830Z,3256
2019-01-28T10:16:18.020Z,3576
2019-01-28T10:17:28.174Z,2840
2019-01-28T10:18:44.262Z,3268
2019-01-28T10:19:54.394Z,4420
2019-01-28T10:21:04.517Z,3668
2019-01-28T10:22:14.662Z,2868
2019-01-28T10:23:26.086Z,2964
2019-01-28T10:24:36.332Z,3628
2019-01-28T10:25:46.549Z,5100
2019-01-28T10:26:56.690Z,4916
2019-01-28T10:28:07.024Z,5044
2019-01-28T10:29:17.230Z,5060
2019-01-28T10:30:27.378Z,4032
2019-01-28T10:31:37.500Z,4396
2019-01-28T10:32:47.617Z,5448
2019-01-28T10:33:57.715Z,5512
2019-01-28T10:35:07.826Z,6960
2019-01-28T10:36:17.680Z,6472
2019-01-28T10:37:30.596Z,7088
2019-01-28T10:38:40.450Z,6944
2019-01-28T10:39:50.595Z,7912
2019-01-28T10:41:00.748Z,7980
2019-01-28T10:42:14.698Z,8332
2019-01-28T10:43:24.836Z,6504
2019-01-28T10:44:35.041Z,5896
2019-01-28T10:45:45.159Z,5448
2019-01-28T10:46:55.669Z,6564
2019-01-28T10:48:07.699Z,6916
2019-01-28T10:49:17.831Z,6308
2019-01-28T10:50:28.179Z,6864
2019-01-28T10:51:38.302Z,5828
2019-01-28T10:52:48.421Z,5000
2019-01-28T10:53:58.569Z,5084
2019-01-28T10:55:08.672Z,5484
2019-01-28T10:56:18.790Z,5368
2019-01-28T10:57:28.898Z,4984
2019-01-28T10:58:39.036Z,4524
2019-01-28T10:59:49.151Z,4188
2019-01-28T11:00:59.263Z,4824
2019-01-28T11:02:09.446Z,5284
2019-01-28T11:03:19.585Z,4972
2019-01-28T11:04:29.731Z,4480
2019-01-28T11:05:40.684Z,3796
2019-01-28T11:06:50.817Z,3424
2019-01-28T11:08:00.964Z,3520
2019-01-28T11:09:11.134Z,3384
2019-01-28T11:10:21.500Z,2940
2019-01-28T11:11:31.830Z,2944
2019-01-28T11:12:42.838Z,3212
2019-01-28T11:13:53.098Z,3484
2019-01-28T11:15:03.427Z,3536
2019-01-28T11:16:13.678Z,3688
2019-01-28T11:17:23.956Z,4040
2019-01-28T11:18:34.281Z,4104
2019-01-28T11:19:44.676Z,5604
2019-01-28T11:20:55.132Z,5924
2019-01-28T11:22:05.761Z,7700
2019-01-28T11:23:16.512Z,7884
2019-01-28T11:24:27.073Z,9580
2019-01-28T11:25:37.557Z,12428
2019-01-28T11:26:48.029Z,38208
2019-01-28T11:27:58.445Z,15168
2019-01-28T11:29:08.798Z,16512
2019-01-28T11:30:19.143Z,18912
2019-01-28T11:31:29.686Z,35072
2019-01-28T11:32:40.175Z,33792
2019-01-28T11:33:50.589Z,34688
2019-01-28T11:35:01.100Z,11732
2019-01-28T11:36:13.193Z,9964
2019-01-28T11:37:23.554Z,9092
2019-01-28T11:38:34.057Z,8976
2019-01-28T11:39:44.648Z,9636
2019-01-28T11:40:55.168Z,10744
2019-01-28T11:42:05.462Z,11412
2019-01-28T11:43:15.994Z,11640
2019-01-28T11:44:26.184Z,11508
2019-01-28T11:45:36.592Z,10488
2019-01-28T11:46:47.079Z,8852
2019-01-28T11:47:57.725Z,7436
2019-01-28T11:49:13.466Z,6280
2019-01-28T11:50:23.924Z,5800
2019-01-28T11:51:34.051Z,5284
2019-01-28T11:52:44.208Z,4776
2019-01-28T11:53:54.355Z,4216
2019-01-28T11:55:04.527Z,3924
2019-01-28T11:56:14.669Z,3940
2019-01-28T11:57:24.866Z,3832
2019-01-28T11:58:34.993Z,3648
2019-01-28T11:59:44.890Z,3700
2019-01-28T12:00:55.022Z,3684
2019-01-28T12:02:05.175Z,3836
2019-01-28T12:03:15.293Z,4036
2019-01-28T12:04:26.514Z,4180
2019-01-28T12:05:36.633Z,4248
2019-01-28T12:06:46.515Z,4300
2019-01-28T12:07:56.635Z,4308
2019-01-28T12:09:06.782Z,4204
2019-01-28T12:10:16.911Z,4100
2019-01-28T12:11:27.060Z,4132
2019-01-28T12:12:36.963Z,4116
2019-01-28T12:13:47.091Z,4092
2019-01-28T12:14:56.967Z,3736
2019-01-28T12:16:07.076Z,3152
2019-01-28T12:17:17.186Z,2948
2019-01-28T12:18:27.302Z,2952
2019-01-28T12:19:37.429Z,3076
2019-01-28T12:20:55.650Z,2860
2019-01-28T12:22:05.824Z,3064
2019-01-28T12:23:15.961Z,3400
2019-01-28T12:24:26.168Z,3624
2019-01-28T12:25:36.312Z,4116
2019-01-28T12:26:46.560Z,4328
2019-01-28T12:27:56.696Z,4252
2019-01-28T12:29:06.832Z,4180
2019-01-28T12:30:16.702Z,4184
2019-01-28T12:31:26.823Z,4236
2019-01-28T12:32:37.000Z,4408
2019-01-28T12:33:47.105Z,4672
2019-01-28T12:34:57.083Z,4928
2019-01-28T12:36:07.198Z,5204
2019-01-28T12:37:17.309Z,5496
2019-01-28T12:38:27.509Z,5624
2019-01-28T12:39:37.643Z,5660
2019-01-28T12:40:47.751Z,5692
2019-01-28T12:41:57.867Z,5912
2019-01-28T12:43:07.723Z,6188
2019-01-28T12:44:17.855Z,6404
2019-01-28T12:45:27.977Z,6516
2019-01-28T12:46:38.344Z,6528
2019-01-28T12:47:48.489Z,6360
2019-01-28T12:48:58.644Z,6232
2019-01-28T12:50:08.744Z,6204
2019-01-28T12:51:19.085Z,6068
2019-01-28T12:52:29.285Z,5796
2019-01-28T12:53:40.075Z,5700
2019-01-28T12:54:50.213Z,5584
2019-01-28T12:56:00.365Z,4864
2019-01-28T12:57:10.485Z,4372
2019-01-28T12:58:20.605Z,4616
2019-01-28T12:59:30.738Z,5276
2019-01-28T13:00:40.854Z,5728
2019-01-28T13:01:50.967Z,6068
2019-01-28T13:03:01.080Z,5872
2019-01-28T13:04:11.223Z,5356
2019-01-28T13:05:21.343Z,4940
2019-01-28T13:06:31.477Z,5048
2019-01-28T13:07:41.625Z,5440
2019-01-28T13:08:51.925Z,5916
2019-01-28T13:10:02.090Z,6260
2019-01-28T13:11:12.224Z,6256
2019-01-28T13:12:22.339Z,6152
2019-01-28T13:13:32.471Z,5824
2019-01-28T13:14:42.584Z,5352
2019-01-28T13:15:52.726Z,4500
2019-01-28T13:17:02.839Z,3464
2019-01-28T13:18:12.966Z,2792
2019-01-28T13:19:29.834Z,2576
2019-01-28T13:20:40.390Z,2632
2019-01-28T13:21:50.626Z,2756
2019-01-28T13:23:00.868Z,2868
2019-01-28T13:24:11.005Z,2904
2019-01-28T13:25:23.267Z,2932
2019-01-28T13:26:33.411Z,2936
2019-01-28T13:27:43.664Z,2940
2019-01-28T13:28:53.544Z,2960
2019-01-28T13:30:04.820Z,3008
2019-01-28T13:31:14.942Z,3168
2019-01-28T13:32:24.835Z,3324
2019-01-28T13:33:34.979Z,3376
2019-01-28T13:34:45.098Z,3268
2019-01-28T13:35:55.230Z,3068
2019-01-28T13:37:05.404Z,2800
2019-01-28T13:38:15.524Z,2584
2019-01-28T13:39:26.630Z,2396
2019-01-28T13:40:36.812Z,2208
2019-01-28T13:41:47.334Z,2048
2019-01-28T13:42:57.448Z,1928
2019-01-28T13:44:07.556Z,1856
2019-01-28T13:45:17.690Z,1828
2019-01-28T13:46:27.810Z,1828
2019-01-28T13:47:37.959Z,1816
2019-01-28T13:48:48.075Z,1772
2019-01-28T13:49:58.209Z,1724
2019-01-28T13:51:09.010Z,1712
2019-01-28T13:52:19.114Z,1712
2019-01-28T13:53:29.312Z,1708
2019-01-28T13:54:39.451Z,1680
2019-01-28T13:55:49.615Z,1644
2019-01-28T13:56:59.756Z,1588
2019-01-28T13:58:09.402Z,1528
2019-01-28T13:59:23.795Z,1476
2019-01-28T14:00:33.943Z,1432
2019-01-28T14:01:44.054Z,1388
2019-01-28T14:02:53.939Z,1340
2019-01-28T14:04:05.794Z,1268
2019-01-28T14:05:15.939Z,1188
2019-01-28T14:06:26.345Z,1100
2019-01-28T14:07:36.485Z,1016
2019-01-28T14:08:46.632Z,940
2019-01-28T14:09:56.747Z,872
2019-01-28T14:11:06.871Z,824
2019-01-28T14:12:17.029Z,792
2019-01-28T14:13:27.196Z,768
2019-01-28T14:14:37.321Z,752
2019-01-28T14:15:47.476Z,732
2019-01-28T14:16:57.608Z,716
2019-01-28T14:18:07.719Z,704
2019-01-28T14:19:17.871Z,700
2019-01-28T14:20:28.082Z,696
2019-01-28T14:21:38.259Z,680
2019-01-28T14:22:48.397Z,660
2019-01-28T14:23:58.531Z,636
2019-01-28T14:25:08.298Z,608
2019-01-28T14:26:18.423Z,576
2019-01-28T14:27:28.580Z,548
2019-01-28T14:28:38.707Z,512
2019-01-28T14:29:48.882Z,484
2019-01-28T14:30:59.000Z,452
2019-01-28T14:32:09.187Z,432
2019-01-28T14:33:19.315Z,412
2019-01-28T14:34:29.430Z,400
2019-01-28T14:35:39.295Z,396
2019-01-28T14:36:49.416Z,388
2019-01-28T14:37:59.548Z,388
2019-01-28T14:39:18.491Z,392
2019-01-28T14:40:28.612Z,396
2019-01-28T14:41:38.787Z,392
2019-01-28T14:42:49.122Z,376
2019-01-28T14:43:59.237Z,360
2019-01-28T14:45:10.090Z,344
2019-01-28T14:46:20.272Z,336
2019-01-28T14:47:30.391Z,336
2019-01-28T14:48:40.517Z,344
2019-01-28T14:50:01.836Z,348
2019-01-28T14:51:11.964Z,356
2019-01-28T14:52:22.125Z,360
2019-01-28T14:53:32.289Z,364
2019-01-28T14:54:42.417Z,360
2019-01-28T14:55:52.541Z,352
2019-01-28T14:57:02.674Z,344
2019-01-28T14:58:16.423Z,328
2019-01-28T14:59:26.695Z,312
2019-01-28T15:00:36.837Z,300
2019-01-28T15:01:47.006Z,288
2019-01-28T15:02:57.162Z,276
2019-01-28T15:04:12.190Z,268
2019-01-28T15:05:22.355Z,264
2019-01-28T15:06:32.249Z,264
2019-01-28T15:07:42.597Z,256
2019-01-28T15:08:52.803Z,244
2019-01-28T15:10:02.986Z,228
2019-01-28T15:11:13.159Z,220
2019-01-28T15:12:23.342Z,212
2019-01-28T15:13:33.208Z,208
2019-01-28T15:14:43.314Z,208
2019-01-28T15:15:53.425Z,200
2019-01-28T15:17:03.600Z,204
2019-01-28T15:18:13.728Z,212
2019-01-28T15:19:23.874Z,208
2019-01-28T15:20:34.046Z,204
2019-01-28T15:21:44.176Z,188
2019-01-28T15:22:54.325Z,180
2019-01-28T15:24:04.439Z,184
2019-01-28T15:25:14.599Z,196
2019-01-28T15:26:25.030Z,200
2019-01-28T15:27:35.273Z,196
2019-01-28T15:28:45.400Z,196
2019-01-28T15:29:55.266Z,196
2019-01-28T15:31:05.665Z,192
2019-01-28T15:32:15.926Z,184
2019-01-28T15:33:26.378Z,176
2019-01-28T15:34:36.392Z,168
2019-01-28T15:35:46.601Z,156
2019-01-28T15:36:56.483Z,140
2019-01-28T15:38:06.639Z,128
2019-01-28T15:39:16.779Z,120
2019-01-28T15:40:26.963Z,120
2019-01-28T15:41:36.856Z,120
2019-01-28T15:42:47.027Z,124
2019-01-28T15:43:57.147Z,120
2019-01-28T15:45:13.752Z,112
2019-01-28T15:46:24.645Z,104
2019-01-28T15:47:34.938Z,96
2019-01-28T15:48:45.083Z,88
2019-01-28T15:49:55.235Z,80
2019-01-28T15:51:05.399Z,72
2019-01-28T15:52:15.016Z,64
2019-01-28T15:53:25.156Z,60
2019-01-28T15:54:35.311Z,52
2019-01-28T15:55:45.485Z,44
2019-01-28T15:56:55.661Z,40
2019-01-28T15:58:05.818Z,36
2019-01-28T15:59:15.963Z,28
2019-01-28T16:00:25.840Z,24
2019-01-28T16:01:35.981Z,20
2019-01-28T16:02:46.118Z,16
2019-01-28T16:03:58.235Z,16
2019-01-28T16:05:08.401Z,12
2019-01-28T16:06:18.580Z,12
2019-01-28T16:07:28.694Z,12
2019-01-28T16:08:38.803Z,8
2019-01-28T16:09:48.980Z,8
2019-01-28T16:10:59.126Z,8
2019-01-28T16:12:09.277Z,4
2019-01-28T16:13:19.413Z,8
2019-01-28T16:14:29.748Z,4
2019-01-28T16:15:39.872Z,4
2019-01-28T16:16:50.028Z,4
2019-01-28T16:18:00.188Z,0
2019-01-28T16:19:10.385Z,4
2019-01-28T16:20:25.885Z,0
2019-01-28T16:21:36.032Z,0